Time;durP1;ratioP1;P1;durP2;ratioP2;P2;SDS_P1;SDS_P2;PMS_P1;PMS_P2;Temp;Humidity;BMP_temperature;BMP_pressure;BME280_temperature;BME280_humidity;BME280_pressure;Samples;Min_cycle;Max_cycle;Signal;HPM_P1;HPM_P2
2021/12/11 00:00:50;;;;;;;15.07;13.57;;;5.20;99.90;;;;;;5015600;28;20225;-61
2021/12/11 00:03:20;;;;;;;15.55;13.65;;;5.30;99.90;;;;;;5021127;28;20224;-61
2021/12/11 00:05:52;;;;;;;16.27;14.68;;;5.30;99.90;;;;;;5016431;28;20209;-61
2021/12/11 00:08:25;;;;;;;16.70;15.10;;;5.30;99.90;;;;;;5014738;28;20611;-61
2021/12/11 00:10:58;;;;;;;20.02;15.23;;;5.40;99.90;;;;;;5014442;28;20268;-61
2021/12/11 00:13:28;;;;;;;17.20;15.60;;;5.30;99.90;;;;;;5015700;28;20230;-61
2021/12/11 00:15:58;;;;;;;15.82;14.32;;;5.30;99.90;;;;;;5015206;28;20574;-61
2021/12/11 00:18:30;;;;;;;16.63;14.93;;;5.40;99.90;;;;;;5014828;28;20193;-61
2021/12/11 00:21:04;;;;;;;17.45;15.75;;;5.40;99.90;;;;;;5034635;28;20280;-63
2021/12/11 00:23:36;;;;;;;15.73;14.23;;;5.50;99.90;;;;;;5036487;28;20244;-61
2021/12/11 00:26:07;;;;;;;15.88;14.15;;;5.40;99.90;;;;;;5035928;28;20311;-62
2021/12/11 00:28:44;;;;;;;15.80;14.15;;;5.40;99.90;;;;;;5035434;28;20220;-61
2021/12/11 00:31:12;;;;;;;15.90;13.30;;;5.40;99.90;;;;;;5036067;28;20234;-61
2021/12/11 00:33:40;;;;;;;14.13;12.73;;;5.20;99.90;;;;;;5050960;28;20236;-62
2021/12/11 00:36:11;;;;;;;12.43;11.23;;;5.30;99.90;;;;;;5034663;28;20208;-61
2021/12/11 00:38:40;;;;;;;13.68;12.48;;;5.00;99.90;;;;;;5032662;28;20220;-61
2021/12/11 00:41:17;;;;;;;12.80;11.60;;;5.00;99.90;;;;;;5032619;28;20193;-60
2021/12/11 00:43:47;;;;;;;14.63;13.13;;;5.00;99.90;;;;;;5032484;28;20315;-61
2021/12/11 00:46:23;;;;;;;12.30;11.00;;;5.10;99.90;;;;;;5032511;28;20299;-61
2021/12/11 00:48:52;;;;;;;13.50;12.20;;;5.10;99.90;;;;;;5032232;28;20589;-60
2021/12/11 00:51:21;;;;;;;13.23;12.00;;;5.00;99.90;;;;;;5032460;28;20295;-61
2021/12/11 00:53:52;;;;;;;11.60;10.50;;;4.80;99.90;;;;;;5032433;28;20216;-61
2021/12/11 00:56:25;;;;;;;13.00;11.80;;;4.80;99.90;;;;;;5032304;28;20195;-61
2021/12/11 00:58:56;;;;;;;11.75;10.65;;;4.80;99.90;;;;;;5027277;28;20197;-61
2021/12/11 01:01:27;;;;;;;13.25;12.02;;;4.90;99.90;;;;;;5025802;28;20203;-61
2021/12/11 01:03:58;;;;;;;11.38;10.18;;;5.00;99.90;;;;;;5044241;28;20722;-61
2021/12/11 01:06:30;;;;;;;11.45;10.30;;;5.00;99.90;;;;;;5052600;28;20220;-61
2021/12/11 01:09:01;;;;;;;11.65;10.45;;;4.90;99.90;;;;;;5051977;28;20227;-61
2021/12/11 01:11:35;;;;;;;11.40;10.50;;;5.00;99.90;;;;;;5052146;28;20286;-61
2021/12/11 01:14:13;;;;;;;11.60;10.50;;;5.10;99.90;;;;;;5037830;28;20217;-61
2021/12/11 01:16:44;;;;;;;11.75;10.75;;;5.10;99.90;;;;;;5032198;28;20185;-61
2021/12/11 01:19:17;;;;;;;9.82;9.02;;;5.30;99.90;;;;;;5031931;28;20284;-61
2021/12/11 01:21:57;;;;;;;10.18;9.23;;;5.20;99.90;;;;;;5030652;28;20658;-61
2021/12/11 01:24:30;;;;;;;9.80;8.90;;;5.00;99.90;;;;;;5031556;28;20274;-61
2021/12/11 01:27:04;;;;;;;11.32;10.23;;;5.10;99.90;;;;;;5033636;28;20255;-61
2021/12/11 01:29:33;;;;;;;11.10;9.98;;;5.20;99.90;;;;;;5033943;28;20658;-61
2021/12/11 01:32:02;;;;;;;10.25;9.35;;;5.10;99.90;;;;;;5040959;28;20705;-60
2021/12/11 01:34:31;;;;;;;11.05;10.05;;;5.20;99.90;;;;;;5081135;22;20704;-65
2021/12/11 01:37:00;;;;;;;10.63;9.68;;;5.30;99.90;;;;;;5082323;28;20182;-65
2021/12/11 01:39:32;;;;;;;13.95;10.63;;;5.30;99.90;;;;;;5072222;28;20252;-64
2021/12/11 01:42:07;;;;;;;11.57;10.48;;;5.00;99.90;;;;;;5069574;28;20223;-65
2021/12/11 01:44:37;;;;;;;12.18;10.95;;;4.90;99.90;;;;;;5062244;28;20235;-65
2021/12/11 01:47:10;;;;;;;12.90;11.60;;;5.00;99.90;;;;;;5055155;28;20251;-65
2021/12/11 01:49:41;;;;;;;12.73;11.70;;;5.10;99.90;;;;;;5061762;28;20271;-65
2021/12/11 01:52:15;;;;;;;12.63;11.52;;;5.00;99.90;;;;;;5058147;28;20278;-65
2021/12/11 01:54:46;;;;;;;13.15;11.95;;;5.10;99.90;;;;;;5061518;28;20216;-65
2021/12/11 01:57:21;;;;;;;12.90;11.55;;;5.20;99.90;;;;;;5055264;28;20225;-64
2021/12/11 01:59:54;;;;;;;12.07;10.80;;;5.10;99.90;;;;;;5050880;28;20231;-64
2021/12/11 02:02:27;;;;;;;14.10;12.80;;;5.30;99.90;;;;;;5058232;28;20285;-64
2021/12/11 02:04:56;;;;;;;12.77;11.60;;;5.40;99.90;;;;;;5060776;28;20215;-64
2021/12/11 02:07:26;;;;;;;14.85;13.45;;;5.50;99.90;;;;;;5059951;28;20306;-64
2021/12/11 02:09:58;;;;;;;15.15;13.80;;;5.60;99.90;;;;;;5063875;28;20630;-64
2021/12/11 02:12:32;;;;;;;13.88;12.75;;;5.50;99.90;;;;;;5061686;28;20707;-64
2021/12/11 02:15:02;;;;;;;14.15;12.95;;;5.30;99.90;;;;;;5070665;28;20328;-63
2021/12/11 02:17:39;;;;;;;15.38;13.95;;;5.50;99.90;;;;;;5070841;28;20236;-64
2021/12/11 02:20:11;;;;;;;15.05;13.65;;;5.60;99.90;;;;;;5070697;28;20199;-63
2021/12/11 02:22:45;;;;;;;14.35;13.07;;;5.70;99.90;;;;;;5070450;28;20200;-62
2021/12/11 02:25:17;;;;;;;15.80;14.40;;;5.60;99.90;;;;;;5070876;28;20246;-64
2021/12/11 02:27:51;;;;;;;16.30;14.70;;;5.30;99.90;;;;;;5053570;28;20294;-64
2021/12/11 02:30:24;;;;;;;18.63;16.83;;;5.20;99.90;;;;;;5041785;28;20664;-64
2021/12/11 02:33:03;;;;;;;16.98;15.35;;;4.80;99.90;;;;;;5058457;28;20239;-64
2021/12/11 02:35:37;;;;;;;16.58;15.07;;;4.90;99.90;;;;;;5070551;28;20272;-64
2021/12/11 02:38:11;;;;;;;16.92;15.40;;;5.00;99.90;;;;;;5067841;28;20294;-63
2021/12/11 02:40:46;;;;;;;17.27;15.75;;;5.20;99.90;;;;;;5056948;28;20287;-64
2021/12/11 02:43:21;;;;;;;17.58;15.80;;;5.10;99.90;;;;;;5064587;28;20215;-64
2021/12/11 02:45:54;;;;;;;15.75;14.25;;;5.10;99.90;;;;;;5064385;28;20227;-64
2021/12/11 02:48:29;;;;;;;16.25;14.85;;;5.10;99.90;;;;;;5064297;28;20274;-63
2021/12/11 02:51:04;;;;;;;16.20;14.80;;;5.10;99.90;;;;;;5067663;28;20237;-64
2021/12/11 02:53:38;;;;;;;15.25;13.85;;;5.10;99.90;;;;;;5063704;28;20195;-64
2021/12/11 02:56:11;;;;;;;16.58;15.07;;;5.20;99.90;;;;;;5064374;28;20199;-64
2021/12/11 02:58:42;;;;;;;16.13;14.55;;;5.40;99.90;;;;;;5065594;28;20278;-64
2021/12/11 03:01:21;;;;;;;15.90;14.50;;;5.50;99.90;;;;;;5065817;28;20778;-64
2021/12/11 03:03:55;;;;;;;14.88;13.55;;;5.60;99.90;;;;;;5066745;28;20268;-64
2021/12/11 03:06:27;;;;;;;16.65;15.10;;;5.80;99.90;;;;;;5065669;28;20215;-64
2021/12/11 03:08:59;;;;;;;14.65;13.25;;;5.70;99.90;;;;;;5072951;28;20226;-65
2021/12/11 03:11:30;;;;;;;12.73;11.57;;;5.60;99.90;;;;;;5063213;28;20231;-63
2021/12/11 03:14:08;;;;;;;14.45;13.15;;;5.50;99.90;;;;;;5056269;28;20743;-64
2021/12/11 03:16:37;;;;;;;14.20;12.90;;;5.60;99.90;;;;;;5066040;28;20213;-64
2021/12/11 03:19:09;;;;;;;13.95;12.65;;;5.60;99.90;;;;;;5063369;28;20203;-64
2021/12/11 03:21:37;;;;;;;13.85;12.57;;;5.70;99.90;;;;;;5066395;28;20243;-64
2021/12/11 03:24:08;;;;;;;16.58;14.98;;;5.60;99.90;;;;;;5067238;28;20254;-64
2021/12/11 03:26:38;;;;;;;10.90;9.90;;;5.50;99.90;;;;;;5066203;28;20243;-64
2021/12/11 03:29:07;;;;;;;14.93;13.52;;;5.30;99.90;;;;;;5066574;28;20249;-64
2021/12/11 03:31:37;;;;;;;14.57;13.10;;;5.30;99.90;;;;;;5066804;28;20254;-65
2021/12/11 03:34:08;;;;;;;13.98;12.68;;;5.00;99.90;;;;;;5064864;28;20285;-64
2021/12/11 03:36:36;;;;;;;12.60;11.30;;;5.10;99.90;;;;;;5064091;28;20219;-64
2021/12/11 03:39:10;;;;;;;14.40;13.10;;;5.10;99.90;;;;;;5055732;28;20626;-64
2021/12/11 03:41:38;;;;;;;12.40;11.15;;;5.30;99.90;;;;;;5065047;28;20250;-64
2021/12/11 03:44:07;;;;;;;12.57;11.30;;;5.00;99.90;;;;;;5068145;28;20254;-64
2021/12/11 03:46:35;;;;;;;12.38;11.35;;;4.80;99.90;;;;;;5065059;28;20295;-64
2021/12/11 03:49:09;;;;;;;13.38;12.15;;;4.50;99.90;;;;;;5060025;28;20708;-63
2021/12/11 03:51:40;;;;;;;14.70;13.15;;;4.50;99.90;;;;;;5062536;28;20283;-64
2021/12/11 03:54:13;;;;;;;14.10;12.63;;;4.20;99.90;;;;;;5064775;28;20683;-63
2021/12/11 03:56:41;;;;;;;14.65;13.05;;;4.10;99.90;;;;;;5057732;28;20695;-64
2021/12/11 03:59:11;;;;;;;14.75;13.40;;;3.80;99.90;;;;;;5064428;28;20230;-64
2021/12/11 04:01:43;;;;;;;16.23;14.80;;;3.60;99.90;;;;;;5065006;28;20675;-64
2021/12/11 04:04:16;;;;;;;17.40;15.73;;;3.60;99.90;;;;;;5058764;28;20243;-64
2021/12/11 04:10:17;;;;;;;17.02;15.55;;;3.80;99.90;;;;;;5053243;28;20188;-65
2021/12/11 04:12:48;;;;;;;17.45;16.00;;;3.70;99.90;;;;;;5052948;28;20210;-63
2021/12/11 04:15:17;;;;;;;17.65;15.90;;;4.00;99.90;;;;;;5053554;28;20248;-64
2021/12/11 04:17:45;;;;;;;16.88;15.20;;;4.20;99.90;;;;;;5053376;28;20234;-64
2021/12/11 04:20:16;;;;;;;15.73;14.40;;;4.20;99.90;;;;;;5053058;28;20716;-64
2021/12/11 04:22:44;;;;;;;16.85;15.38;;;4.00;99.90;;;;;;5053376;28;20661;-65
2021/12/11 04:25:17;;;;;;;17.08;15.38;;;4.00;99.90;;;;;;5053480;28;20299;-64
2021/12/11 04:27:46;;;;;;;18.40;16.50;;;3.90;99.90;;;;;;5053506;28;20238;-62
2021/12/11 04:30:16;;;;;;;17.00;15.52;;;3.80;99.90;;;;;;5052377;28;20271;-64
2021/12/11 04:32:45;;;;;;;19.20;17.60;;;3.80;99.90;;;;;;5061173;28;20199;-63
2021/12/11 04:35:16;;;;;;;20.10;18.15;;;4.00;99.90;;;;;;5068733;28;20717;-64
2021/12/11 04:37:44;;;;;;;19.35;17.45;;;3.90;99.90;;;;;;5073468;28;20223;-64
2021/12/11 04:40:16;;;;;;;21.80;19.48;;;3.80;99.90;;;;;;5048405;28;20736;-64
2021/12/11 04:42:53;;;;;;;22.17;20.17;;;4.00;99.90;;;;;;5053117;28;20318;-63
2021/12/11 04:49:34;;;;;;;20.45;18.55;;;4.20;99.90;;;;;;5052974;28;20817;-64
2021/12/11 04:52:11;;;;;;;19.52;17.63;;;4.50;99.90;;;;;;5052444;28;20200;-64
2021/12/11 04:54:51;;;;;;;18.67;16.88;;;4.90;99.90;;;;;;5033053;28;20307;-63
2021/12/11 04:57:52;;;;;;;18.15;16.65;;;5.10;99.90;;;;;;5032955;28;20196;-64
2021/12/11 05:00:36;;;;;;;17.63;15.93;;;5.20;99.90;;;;;;5049196;28;20291;-65
2021/12/11 05:06:24;;;;;;;13.05;11.90;;;5.30;99.90;;;;;;5054746;28;20646;-65
2021/12/11 05:11:41;;;;;;;18.33;16.60;;;5.30;99.90;;;;;;5052677;28;20249;-65
2021/12/11 05:18:14;;;;;;;18.83;17.02;;;5.30;99.90;;;;;;5059389;28;20606;-64
2021/12/11 05:20:45;;;;;;;17.67;16.05;;;5.40;99.90;;;;;;5072380;28;20191;-63
2021/12/11 05:23:16;;;;;;;19.02;17.23;;;5.40;99.90;;;;;;5054700;28;20200;-64
2021/12/11 05:25:44;;;;;;;17.70;15.93;;;5.60;99.90;;;;;;5052435;28;20220;-64
2021/12/11 05:28:12;;;;;;;16.58;14.18;;;5.70;99.90;;;;;;5051170;28;20688;-64
2021/12/11 05:30:42;;;;;;;16.80;14.80;;;5.70;99.90;;;;;;5052337;28;20228;-65
2021/12/11 05:33:12;;;;;;;17.38;15.52;;;5.80;99.90;;;;;;5048596;28;20226;-64
2021/12/11 05:35:41;;;;;;;15.93;14.50;;;5.80;99.90;;;;;;5045564;28;20235;-64
2021/12/11 05:38:11;;;;;;;18.88;17.17;;;5.50;99.90;;;;;;5051805;28;20642;-65
2021/12/11 05:40:43;;;;;;;18.30;16.40;;;5.50;99.90;;;;;;5052426;28;20211;-63
2021/12/11 05:43:12;;;;;;;18.55;16.65;;;5.60;99.90;;;;;;5046045;28;20212;-65
2021/12/11 05:45:41;;;;;;;17.50;14.77;;;5.60;99.90;;;;;;5032195;28;20251;-65
2021/12/11 05:48:10;;;;;;;19.30;17.48;;;5.70;99.90;;;;;;5031792;28;20266;-64
2021/12/11 05:50:43;;;;;;;17.88;16.15;;;5.80;99.90;;;;;;5032002;28;20228;-64
2021/12/11 05:53:11;;;;;;;18.80;16.85;;;5.80;99.90;;;;;;5043758;28;20300;-65
2021/12/11 05:55:40;;;;;;;18.83;17.13;;;5.90;99.90;;;;;;5048667;28;20755;-65
2021/12/11 05:58:11;;;;;;;18.52;16.70;;;5.70;99.90;;;;;;5052743;28;20214;-65
2021/12/11 06:00:44;;;;;;;20.95;18.85;;;5.50;99.90;;;;;;5059511;28;20227;-65
2021/12/11 06:03:13;;;;;;;21.65;19.52;;;5.30;99.90;;;;;;5064940;28;20987;-65
2021/12/11 06:05:43;;;;;;;25.17;21.30;;;5.00;99.90;;;;;;5061689;28;20298;-66
2021/12/11 06:08:12;;;;;;;22.85;20.60;;;4.60;99.90;;;;;;5052753;28;20247;-65
2021/12/11 06:10:42;;;;;;;24.08;21.67;;;4.50;99.90;;;;;;5054745;28;20228;-64
2021/12/11 06:13:11;;;;;;;25.02;22.63;;;4.40;99.90;;;;;;5061990;28;20245;-65
2021/12/11 06:15:39;;;;;;;22.30;20.10;;;4.20;99.90;;;;;;5052197;28;20742;-64
2021/12/11 06:18:13;;;;;;;25.33;23.13;;;3.50;99.90;;;;;;5050889;28;20219;-64
2021/12/11 06:20:43;;;;;;;28.15;25.45;;;4.00;99.90;;;;;;5051572;28;20231;-65
2021/12/11 06:23:11;;;;;;;27.65;25.05;;;3.90;99.90;;;;;;5051420;28;20592;-66
2021/12/11 06:25:39;;;;;;;29.02;26.00;;;3.90;99.90;;;;;;5052480;28;20659;-65
2021/12/11 06:28:08;;;;;;;42.47;31.95;;;3.90;99.90;;;;;;5046347;28;20212;-65
2021/12/11 06:30:38;;;;;;;40.50;30.48;;;7.00;99.90;;;;;;5046958;28;20231;-64
2021/12/11 06:33:06;;;;;;;53.72;44.78;;;8.50;99.90;;;;;;5054600;28;20217;-67
2021/12/11 06:35:39;;;;;;;32.88;29.58;;;9.10;99.90;;;;;;5058613;28;20262;-66
2021/12/11 06:38:11;;;;;;;22.33;20.10;;;8.30;99.90;;;;;;5051509;28;20223;-66
2021/12/11 06:40:40;;;;;;;22.30;20.05;;;7.50;99.90;;;;;;5046110;28;20685;-67
2021/12/11 06:43:08;;;;;;;21.83;19.75;;;6.90;99.90;;;;;;5046144;28;20231;-67
2021/12/11 06:45:37;;;;;;;22.55;20.45;;;6.40;99.90;;;;;;5043755;28;20275;-65
2021/12/11 06:48:06;;;;;;;23.48;21.08;;;5.90;99.90;;;;;;5053664;28;20279;-66
2021/12/11 06:50:34;;;;;;;22.20;19.88;;;5.50;99.90;;;;;;5056163;28;20291;-66
2021/12/11 06:53:11;;;;;;;24.25;21.27;;;5.00;99.90;;;;;;5051606;28;20681;-66
2021/12/11 06:55:39;;;;;;;25.17;22.55;;;4.70;99.90;;;;;;5042191;28;20265;-66
2021/12/11 06:58:07;;;;;;;24.92;22.42;;;4.50;99.90;;;;;;5047288;28;20232;-67
2021/12/11 07:00:35;;;;;;;27.80;23.05;;;4.40;99.90;;;;;;5046657;28;20296;-66
2021/12/11 07:03:04;;;;;;;26.23;23.27;;;4.20;99.90;;;;;;5051961;28;20199;-66
2021/12/11 07:05:33;;;;;;;28.58;25.45;;;4.10;99.90;;;;;;5050625;28;20277;-66
2021/12/11 07:08:04;;;;;;;28.55;25.63;;;4.10;99.90;;;;;;5054856;28;20290;-68
2021/12/11 07:10:34;;;;;;;31.08;28.08;;;4.00;99.90;;;;;;5056470;28;20188;-66
2021/12/11 07:13:02;;;;;;;32.30;29.25;;;3.80;99.90;;;;;;5055062;28;20705;-67
2021/12/11 07:15:30;;;;;;;28.77;25.98;;;3.70;99.90;;;;;;5044852;28;20318;-67
2021/12/11 07:17:58;;;;;;;29.27;26.60;;;3.60;99.90;;;;;;5054020;28;20303;-67
2021/12/11 07:20:26;;;;;;;29.00;26.00;;;3.50;99.90;;;;;;5051378;28;20288;-67
2021/12/11 07:22:54;;;;;;;28.45;25.73;;;3.40;99.90;;;;;;5050555;28;20203;-67
2021/12/11 07:25:27;;;;;;;28.20;25.40;;;3.30;99.90;;;;;;5063434;28;20310;-67
2021/12/11 07:27:58;;;;;;;28.55;25.92;;;3.30;99.90;;;;;;5067219;28;20238;-67
2021/12/11 07:30:26;;;;;;;29.33;26.60;;;3.20;99.90;;;;;;5058093;28;20259;-66
2021/12/11 07:32:56;;;;;;;30.73;27.95;;;3.20;99.90;;;;;;5067056;28;20219;-66
2021/12/11 07:35:24;;;;;;;29.08;25.50;;;3.20;99.90;;;;;;5058527;28;21233;-66
2021/12/11 07:37:52;;;;;;;27.10;24.38;;;3.00;99.90;;;;;;5058496;28;20211;-66
2021/12/11 07:40:25;;;;;;;32.95;29.95;;;3.00;99.90;;;;;;5056924;28;20282;-66
2021/12/11 07:42:53;;;;;;;28.73;26.20;;;2.90;99.90;;;;;;5049068;28;20207;-66
2021/12/11 07:45:25;;;;;;;31.95;28.75;;;3.00;99.90;;;;;;5047340;28;20215;-67
2021/12/11 07:47:53;;;;;;;31.95;28.95;;;2.90;99.90;;;;;;5058905;28;20219;-66
2021/12/11 07:50:23;;;;;;;33.00;29.92;;;3.00;99.90;;;;;;5057264;28;20319;-66
2021/12/11 07:52:50;;;;;;;30.88;27.88;;;3.00;99.90;;;;;;5067736;28;20311;-66
2021/12/11 07:55:19;;;;;;;30.67;27.73;;;2.90;99.90;;;;;;5058366;28;20279;-67
2021/12/11 07:57:47;;;;;;;32.25;29.02;;;2.90;99.90;;;;;;5056706;28;20886;-66
2021/12/11 08:00:19;;;;;;;31.58;28.60;;;3.00;99.90;;;;;;5057135;28;20275;-66
2021/12/11 08:02:49;;;;;;;29.20;26.38;;;2.90;99.90;;;;;;5038592;28;20226;-66
2021/12/11 08:05:18;;;;;;;29.33;26.70;;;2.90;99.90;;;;;;5049965;28;20288;-67
2021/12/11 08:07:46;;;;;;;29.15;26.30;;;3.00;99.90;;;;;;5042666;28;20226;-67
2021/12/11 08:10:18;;;;;;;29.08;26.13;;;3.00;99.90;;;;;;5056688;28;20220;-65
2021/12/11 08:12:46;;;;;;;31.42;28.48;;;3.00;99.90;;;;;;5040660;28;20230;-66
2021/12/11 08:15:16;;;;;;;29.25;26.45;;;3.00;99.90;;;;;;5054462;28;20786;-65
2021/12/11 08:17:50;;;;;;;27.70;24.23;;;3.10;99.90;;;;;;5049888;28;20302;-65
2021/12/11 08:20:21;;;;;;;29.63;26.73;;;3.20;99.90;;;;;;5052715;28;20197;-66
2021/12/11 08:22:49;;;;;;;32.40;25.83;;;3.20;99.90;;;;;;5055777;28;20249;-65
2021/12/11 08:25:18;;;;;;;29.42;26.42;;;3.40;99.90;;;;;;5045835;28;20414;-66
2021/12/11 08:27:47;;;;;;;25.90;23.38;;;3.70;99.90;;;;;;5046615;28;20287;-65
2021/12/11 08:30:16;;;;;;;24.70;22.30;;;4.10;99.90;;;;;;5055299;28;20307;-66
2021/12/11 08:32:45;;;;;;;25.48;22.88;;;4.50;99.90;;;;;;5059153;28;20278;-68
2021/12/11 08:35:14;;;;;;;23.65;21.25;;;4.80;99.90;;;;;;5055217;28;20250;-65
2021/12/11 08:37:46;;;;;;;26.15;19.98;;;5.20;99.90;;;;;;5059787;28;20735;-66
2021/12/11 08:40:19;;;;;;;24.27;21.88;;;5.70;99.90;;;;;;5053756;28;20220;-65
2021/12/11 08:42:48;;;;;;;25.52;21.67;;;6.00;99.90;;;;;;5048608;28;20234;-65
2021/12/11 08:45:22;;;;;;;32.30;23.45;;;6.30;99.90;;;;;;5044960;28;20689;-66
2021/12/11 08:47:54;;;;;;;24.83;21.73;;;6.40;99.90;;;;;;5048707;28;20275;-66
2021/12/11 08:50:25;;;;;;;25.45;21.40;;;6.50;99.90;;;;;;5044009;28;20211;-67
2021/12/11 08:52:56;;;;;;;25.27;22.63;;;6.50;99.90;;;;;;5045530;28;20278;-66
2021/12/11 08:55:28;;;;;;;25.70;22.85;;;6.60;99.90;;;;;;5052433;28;20315;-66
2021/12/11 08:57:57;;;;;;;26.50;22.23;;;6.60;99.90;;;;;;5062456;28;20736;-67
2021/12/11 09:00:31;;;;;;;25.10;22.40;;;6.40;99.90;;;;;;5046787;28;20283;-66
2021/12/11 09:03:03;;;;;;;26.77;24.08;;;6.30;99.90;;;;;;5053092;28;20226;-65
2021/12/11 09:05:39;;;;;;;26.23;22.90;;;6.40;99.90;;;;;;5052843;28;20579;-65
2021/12/11 09:08:12;;;;;;;28.73;25.70;;;6.70;99.90;;;;;;5058353;28;20235;-67
2021/12/11 09:10:45;;;;;;;24.52;21.90;;;6.90;99.90;;;;;;5057711;28;20267;-66
2021/12/11 09:13:32;;;;;;;21.17;19.05;;;7.10;99.90;;;;;;5051389;28;20291;-66
2021/12/11 09:16:05;;;;;;;18.95;17.05;;;7.60;99.90;;;;;;5046870;28;20728;-67
2021/12/11 09:18:38;;;;;;;23.58;17.90;;;7.80;99.90;;;;;;5051619;28;20200;-66
2021/12/11 09:21:11;;;;;;;18.50;16.63;;;8.10;99.90;;;;;;5047766;28;20637;-67
2021/12/11 09:23:43;;;;;;;20.77;15.95;;;8.30;99.90;;;;;;5057011;28;20243;-67
2021/12/11 09:26:16;;;;;;;21.52;16.98;;;8.60;99.90;;;;;;5057838;28;20199;-66
2021/12/11 09:28:50;;;;;;;15.70;13.85;;;9.00;99.90;;;;;;5056396;28;20254;-66
2021/12/11 09:31:22;;;;;;;19.58;15.65;;;9.20;99.90;;;;;;5058601;28;20315;-65
2021/12/11 09:33:53;;;;;;;17.60;14.60;;;9.10;99.90;;;;;;5060455;28;21263;-66
2021/12/11 09:36:30;;;;;;;18.50;14.50;;;8.80;99.90;;;;;;5058905;28;20210;-66
2021/12/11 09:39:06;;;;;;;17.98;14.27;;;8.90;99.90;;;;;;5058260;28;20914;-66
2021/12/11 09:41:35;;;;;;;18.75;14.95;;;9.20;99.90;;;;;;5058118;28;20605;-66
2021/12/11 09:44:09;;;;;;;22.08;15.50;;;9.40;99.90;;;;;;5054096;28;20238;-66
2021/12/11 09:46:41;;;;;;;19.55;13.93;;;9.60;99.90;;;;;;5058078;28;20207;-66
2021/12/11 09:49:13;;;;;;;15.57;13.85;;;9.70;99.90;;;;;;5059984;28;20270;-66
2021/12/11 09:51:45;;;;;;;15.13;12.90;;;9.90;99.90;;;;;;5058176;28;20254;-66
2021/12/11 09:54:17;;;;;;;17.60;14.30;;;10.00;99.90;;;;;;5066160;28;20298;-66
2021/12/11 09:56:48;;;;;;;17.92;15.10;;;10.20;99.90;;;;;;5058591;28;20231;-65
2021/12/11 09:59:21;;;;;;;17.10;14.95;;;10.10;99.90;;;;;;5058987;28;20226;-66
2021/12/11 10:01:53;;;;;;;18.35;15.35;;;10.00;99.90;;;;;;5051602;28;20621;-66
2021/12/11 10:04:30;;;;;;;21.90;15.85;;;10.00;99.90;;;;;;5055807;28;20254;-66
2021/12/11 10:07:25;;;;;;;18.83;16.35;;;10.00;99.90;;;;;;5056368;28;20310;-66
2021/12/11 10:09:56;;;;;;;22.20;16.63;;;9.70;99.90;;;;;;5047941;28;20204;-66
2021/12/11 10:12:28;;;;;;;17.73;15.02;;;9.30;99.90;;;;;;5062909;28;20303;-65
2021/12/11 10:15:07;;;;;;;20.33;17.27;;;8.80;99.90;;;;;;5045960;28;20215;-66
2021/12/11 10:17:41;;;;;;;22.17;16.35;;;8.70;99.90;;;;;;5056451;28;20261;-66
2021/12/11 10:20:14;;;;;;;22.88;17.67;;;8.90;99.90;;;;;;5056852;28;20340;-66
2021/12/11 10:22:44;;;;;;;19.92;17.80;;;9.30;99.90;;;;;;5033555;28;20224;-67
2021/12/11 10:25:20;;;;;;;20.25;17.40;;;9.50;99.90;;;;;;5044293;28;20219;-66
2021/12/11 10:27:49;;;;;;;23.98;18.10;;;9.70;99.90;;;;;;5053309;28;20627;-66
2021/12/11 10:30:22;;;;;;;23.73;19.13;;;10.00;99.90;;;;;;5055315;28;20744;-65
2021/12/11 10:32:51;;;;;;;21.80;19.13;;;10.00;99.90;;;;;;5061968;28;20205;-66
2021/12/11 10:35:24;;;;;;;23.30;18.92;;;10.10;99.90;;;;;;5051498;28;20308;-67
2021/12/11 10:37:53;;;;;;;20.92;18.60;;;10.10;99.90;;;;;;5046979;28;20207;-66
2021/12/11 10:40:26;;;;;;;21.98;17.58;;;9.70;99.90;;;;;;5053926;28;20286;-68
2021/12/11 10:43:00;;;;;;;24.48;19.13;;;9.50;99.90;;;;;;5051083;28;20208;-66
2021/12/11 10:45:30;;;;;;;21.33;16.40;;;9.10;99.90;;;;;;5043379;28;20231;-65
2021/12/11 10:48:03;;;;;;;23.50;17.42;;;8.70;99.90;;;;;;5045099;28;20208;-65
2021/12/11 10:50:36;;;;;;;19.17;16.30;;;8.40;99.90;;;;;;5051455;28;20306;-66
2021/12/11 10:53:08;;;;;;;22.42;18.10;;;8.10;99.90;;;;;;5058010;28;20203;-68
2021/12/11 10:55:37;;;;;;;22.63;18.38;;;7.90;99.90;;;;;;5049715;28;20294;-66
2021/12/11 10:58:13;;;;;;;24.45;17.40;;;7.70;99.90;;;;;;5060200;28;20230;-66
2021/12/11 11:00:46;;;;;;;21.77;17.33;;;7.50;99.90;;;;;;5059056;28;20282;-67
2021/12/11 11:03:15;;;;;;;19.45;16.92;;;7.10;99.90;;;;;;5052012;28;20751;-66
2021/12/11 11:05:45;;;;;;;18.17;13.75;;;6.90;99.90;;;;;;5052314;28;20301;-66
2021/12/11 11:08:13;;;;;;;15.20;13.57;;;7.00;99.90;;;;;;5058315;28;20676;-66
2021/12/11 11:10:46;;;;;;;16.38;12.32;;;7.30;99.90;;;;;;5057552;28;20261;-66
2021/12/11 11:13:17;;;;;;;16.30;12.93;;;7.90;99.90;;;;;;5065478;28;20294;-65
2021/12/11 11:15:47;;;;;;;14.82;12.25;;;8.50;99.90;;;;;;5060736;28;20245;-66
2021/12/11 11:18:20;;;;;;;14.95;11.98;;;8.80;99.90;;;;;;5038786;28;20749;-64
2021/12/11 11:20:51;;;;;;;15.00;11.15;;;8.70;99.90;;;;;;5039382;28;20278;-67
2021/12/11 11:23:19;;;;;;;12.05;10.82;;;8.70;99.90;;;;;;5039787;28;20207;-68
2021/12/11 11:25:52;;;;;;;14.63;11.15;;;8.20;99.90;;;;;;5036482;28;20306;-66
2021/12/11 11:28:23;;;;;;;13.57;10.70;;;8.00;99.90;;;;;;5039912;28;20278;-67
2021/12/11 11:30:56;;;;;;;13.82;11.20;;;8.20;99.90;;;;;;5048202;28;20330;-67
2021/12/11 11:33:25;;;;;;;16.27;12.20;;;8.30;99.90;;;;;;5051363;28;20259;-67
2021/12/11 11:35:54;;;;;;;17.65;11.98;;;8.80;99.90;;;;;;5063338;28;20832;-67
2021/12/11 11:38:24;;;;;;;16.85;11.90;;;9.50;99.90;;;;;;5041708;28;20207;-68
2021/12/11 11:40:57;;;;;;;15.77;11.43;;;10.00;99.90;;;;;;5058214;28;20559;-67
2021/12/11 11:43:26;;;;;;;14.65;11.40;;;10.40;99.90;;;;;;5067533;28;20908;-66
2021/12/11 11:45:56;;;;;;;10.90;9.82;;;10.80;99.90;;;;;;5049498;28;20752;-68
2021/12/11 11:48:26;;;;;;;12.95;10.25;;;11.20;99.90;;;;;;5052556;28;20208;-67
2021/12/11 11:51:12;;;;;;;12.50;10.60;;;11.70;99.90;;;;;;5050816;28;20252;-67
2021/12/11 11:53:40;;;;;;;10.60;9.50;;;12.00;99.90;;;;;;5042095;28;20207;-66
2021/12/11 11:56:11;;;;;;;12.32;10.55;;;11.70;99.90;;;;;;5050986;28;20196;-67
2021/12/11 11:58:39;;;;;;;13.77;9.70;;;11.10;99.90;;;;;;5051831;28;20207;-68
2021/12/11 12:01:13;;;;;;;14.25;11.02;;;10.70;99.90;;;;;;5054768;28;20199;-67
2021/12/11 12:03:42;;;;;;;13.65;11.25;;;10.30;99.90;;;;;;5056572;28;20268;-66
2021/12/11 12:06:22;;;;;;;11.50;10.30;;;10.30;99.90;;;;;;5051481;28;20204;-67
2021/12/11 12:08:50;;;;;;;10.68;9.68;;;10.30;99.90;;;;;;5058802;28;20195;-67
2021/12/11 12:11:18;;;;;;;14.18;10.85;;;10.10;99.90;;;;;;5055551;28;20685;-67
2021/12/11 12:13:46;;;;;;;15.07;12.13;;;9.90;99.90;;;;;;5054400;28;20215;-67
2021/12/11 12:16:29;;;;;;;14.32;11.85;;;9.30;99.90;;;;;;5042596;28;20648;-66
2021/12/11 12:18:58;;;;;;;13.20;11.80;;;8.80;99.90;;;;;;5033805;28;20795;-67
2021/12/11 12:21:26;;;;;;;12.85;11.52;;;8.40;99.90;;;;;;5046206;28;20266;-66
2021/12/11 12:23:54;;;;;;;14.80;11.95;;;8.20;99.90;;;;;;5046046;28;20360;-66
2021/12/11 12:26:24;;;;;;;14.85;13.30;;;8.10;99.90;;;;;;5036535;28;20231;-66
2021/12/11 12:28:54;;;;;;;14.60;13.10;;;8.00;99.90;;;;;;5035287;28;20597;-66
2021/12/11 12:31:27;;;;;;;14.68;13.05;;;7.90;99.90;;;;;;5013630;28;20311;-66
2021/12/11 12:33:58;;;;;;;18.25;14.82;;;7.70;99.90;;;;;;5049148;28;20948;-66
2021/12/11 12:36:26;;;;;;;16.25;14.60;;;7.20;99.90;;;;;;5056770;28;20272;-65
2021/12/11 12:38:55;;;;;;;15.93;13.90;;;6.90;99.90;;;;;;5057744;28;20199;-66
2021/12/11 12:41:29;;;;;;;17.00;15.20;;;6.70;99.90;;;;;;5063901;28;20585;-66
2021/12/11 12:47:03;;;;;;;20.35;15.70;;;6.50;99.90;;;;;;5040645;28;20274;-66
2021/12/11 12:49:35;;;;;;;17.40;15.32;;;6.30;99.90;;;;;;5045515;28;20566;-65
2021/12/11 12:52:08;;;;;;;18.00;15.27;;;6.30;99.90;;;;;;5049903;28;20223;-66
2021/12/11 12:54:36;;;;;;;14.50;13.00;;;6.20;99.90;;;;;;5050503;28;20652;-66
2021/12/11 12:57:14;;;;;;;14.82;13.18;;;6.20;99.90;;;;;;5048510;28;20236;-66
2021/12/11 12:59:47;;;;;;;15.50;13.70;;;6.20;99.90;;;;;;5050232;28;20235;-66
2021/12/11 13:02:18;;;;;;;16.05;14.00;;;6.20;99.90;;;;;;5061924;28;20218;-66
2021/12/11 13:04:57;;;;;;;17.35;15.32;;;6.10;99.90;;;;;;5047053;28;20215;-66
2021/12/11 13:07:45;;;;;;;18.52;15.25;;;6.00;99.90;;;;;;5064310;28;20664;-66
2021/12/11 13:10:21;;;;;;;16.45;13.68;;;5.70;99.90;;;;;;5044124;28;20283;-66
2021/12/11 13:12:51;;;;;;;14.07;12.57;;;5.50;99.90;;;;;;5050165;28;20302;-66
2021/12/11 13:15:24;;;;;;;15.25;13.65;;;5.30;99.90;;;;;;5043994;28;20327;-65
2021/12/11 13:17:53;;;;;;;15.65;13.60;;;5.30;99.90;;;;;;5048988;28;20309;-65